createdAt,value
2017-10-30T00:00:57.892Z,7.60
2017-10-30T00:03:25.379Z,7.60
2017-10-30T00:05:52.856Z,7.60
2017-10-30T00:08:21.095Z,7.60
2017-10-30T00:10:48.581Z,7.60
2017-10-30T00:13:16.819Z,7.60
2017-10-30T00:15:44.308Z,7.60
2017-10-30T00:18:11.779Z,7.60
2017-10-30T00:20:40.016Z,7.60
2017-10-30T00:23:07.501Z,7.60
2017-10-30T00:25:34.979Z,7.60
2017-10-30T00:28:03.236Z,7.60
2017-10-30T00:30:30.705Z,7.60
2017-10-30T00:32:58.982Z,7.50
2017-10-30T00:35:26.512Z,7.50
2017-10-30T00:37:54.135Z,7.50
2017-10-30T00:40:21.689Z,7.50
2017-10-30T00:42:49.432Z,7.60
2017-10-30T00:45:17.660Z,7.60
2017-10-30T00:47:45.149Z,7.60
2017-10-30T00:50:13.391Z,7.60
2017-10-30T00:52:40.891Z,7.50
2017-10-30T00:55:09.181Z,7.60
2017-10-30T00:57:37.420Z,7.60
2017-10-30T01:00:04.920Z,7.60
2017-10-30T01:02:33.159Z,7.60
2017-10-30T01:05:00.654Z,7.60
2017-10-30T01:07:28.893Z,7.60
2017-10-30T01:09:56.360Z,7.60
2017-10-30T01:12:24.616Z,7.70
2017-10-30T01:14:52.084Z,7.60
2017-10-30T01:17:19.576Z,7.70
2017-10-30T01:19:47.820Z,7.70
2017-10-30T01:22:15.308Z,7.70
2017-10-30T01:24:43.560Z,7.60
2017-10-30T01:27:11.128Z,7.60
2017-10-30T01:29:38.626Z,7.60
2017-10-30T01:32:06.108Z,7.60
2017-10-30T01:34:33.571Z,7.60
2017-10-30T01:37:01.058Z,7.50
2017-10-30T01:39:28.535Z,7.50
2017-10-30T01:41:56.800Z,7.60
2017-10-30T01:44:25.046Z,7.60
2017-10-30T01:46:52.511Z,7.60
2017-10-30T01:49:20.000Z,7.70
2017-10-30T01:51:48.240Z,7.70
2017-10-30T01:54:15.744Z,7.70
2017-10-30T01:56:43.981Z,7.70
2017-10-30T01:59:11.453Z,7.70
2017-10-30T02:01:38.935Z,7.70
2017-10-30T02:04:07.170Z,7.70
2017-10-30T02:06:34.751Z,7.70
2017-10-30T02:09:02.223Z,7.70
2017-10-30T02:11:30.456Z,7.60
2017-10-30T02:13:57.965Z,7.60
2017-10-30T02:16:25.440Z,7.60
2017-10-30T02:18:52.936Z,7.60
2017-10-30T02:21:20.399Z,7.50
2017-10-30T02:23:47.871Z,7.50
2017-10-30T02:26:15.355Z,7.50
2017-10-30T02:28:43.619Z,7.50
2017-10-30T02:31:11.888Z,7.50
2017-10-30T02:33:40.132Z,7.50
2017-10-30T02:36:07.601Z,7.50
2017-10-30T02:38:35.094Z,7.40
2017-10-30T02:41:03.329Z,7.50
2017-10-30T02:43:30.833Z,7.50
2017-10-30T02:45:59.076Z,7.50
2017-10-30T02:48:26.548Z,7.40
2017-10-30T02:50:54.804Z,7.40
2017-10-30T02:53:22.281Z,7.40
2017-10-30T02:55:49.768Z,7.50
2017-10-30T02:58:17.247Z,7.50
2017-10-30T03:00:44.720Z,7.50
2017-10-30T03:03:12.212Z,7.50
2017-10-30T03:05:39.679Z,7.50
2017-10-30T03:08:07.962Z,7.40
2017-10-30T03:10:36.200Z,7.30
2017-10-30T03:13:03.672Z,7.30
2017-10-30T03:15:31.170Z,7.30
2017-10-30T03:17:58.643Z,7.40
2017-10-30T03:20:26.140Z,7.30
2017-10-30T03:22:53.619Z,7.30
2017-10-30T03:25:21.897Z,7.20
2017-10-30T03:27:50.152Z,7.20
2017-10-30T03:30:17.634Z,7.20
2017-10-30T03:32:45.888Z,7.20
2017-10-30T03:35:13.390Z,7.10
2017-10-30T03:37:41.625Z,7.10
2017-10-30T03:40:09.210Z,7.10
2017-10-30T03:42:37.485Z,7.20
2017-10-30T03:45:04.969Z,7.20
2017-10-30T03:47:32.457Z,7.20
2017-10-30T03:49:59.945Z,7.20
2017-10-30T03:52:27.424Z,7.30
2017-10-30T03:54:55.655Z,7.40
2017-10-30T03:57:23.156Z,7.40
2017-10-30T03:59:51.396Z,7.40
2017-10-30T04:02:18.865Z,7.30
2017-10-30T04:04:46.349Z,7.30
2017-10-30T04:07:14.584Z,7.40
2017-10-30T04:09:42.082Z,7.30
2017-10-30T04:12:10.315Z,7.50
2017-10-30T04:14:37.801Z,7.50
2017-10-30T04:17:06.063Z,7.50
2017-10-30T04:19:33.531Z,7.50
2017-10-30T04:22:01.020Z,7.50
2017-10-30T04:24:28.493Z,7.40
2017-10-30T04:26:55.968Z,7.40
2017-10-30T04:29:23.460Z,7.40
2017-10-30T04:31:50.934Z,7.40
2017-10-30T04:34:19.205Z,7.40
2017-10-30T04:36:47.451Z,7.30
2017-10-30T04:39:14.920Z,7.30
2017-10-30T04:41:43.194Z,7.30
2017-10-30T04:44:10.670Z,7.30
2017-10-30T04:46:38.156Z,7.30
2017-10-30T04:49:05.641Z,7.20
2017-10-30T04:51:33.123Z,7.20
2017-10-30T04:54:00.613Z,7.20
2017-10-30T04:56:28.848Z,7.20
2017-10-30T04:58:56.341Z,7.20
2017-10-30T05:01:24.592Z,7.10
2017-10-30T05:03:52.056Z,7.10
2017-10-30T05:06:19.540Z,7.20
2017-10-30T05:08:47.785Z,7.10
2017-10-30T05:11:15.286Z,7.10
2017-10-30T05:13:43.524Z,7.10
2017-10-30T05:16:11.006Z,7.10
2017-10-30T05:18:39.256Z,7.00
2017-10-30T05:21:06.730Z,7.00
2017-10-30T05:23:34.220Z,7.00
2017-10-30T05:26:01.695Z,7.10
2017-10-30T05:28:29.171Z,7.00
2017-10-30T05:30:56.666Z,7.00
2017-10-30T05:33:24.159Z,7.00
2017-10-30T05:35:51.656Z,7.10
2017-10-30T05:38:19.124Z,7.00
2017-10-30T05:40:46.600Z,7.00
2017-10-30T05:43:14.892Z,7.00
2017-10-30T05:45:43.160Z,7.00
2017-10-30T05:48:11.427Z,7.00
2017-10-30T05:50:38.898Z,7.00
2017-10-30T05:53:07.138Z,7.00
2017-10-30T05:55:34.627Z,7.00
2017-10-30T05:58:02.871Z,7.10
2017-10-30T06:00:30.375Z,7.10
2017-10-30T06:02:58.612Z,7.10
2017-10-30T06:05:26.091Z,7.10
2017-10-30T06:07:53.576Z,7.10
2017-10-30T06:10:21.070Z,7.10
2017-10-30T06:12:48.566Z,7.10
2017-10-30T06:15:16.808Z,7.10
2017-10-30T06:17:44.290Z,7.00
2017-10-30T06:20:11.772Z,7.00
2017-10-30T06:22:40.008Z,7.10
2017-10-30T06:25:07.592Z,7.10
2017-10-30T06:27:35.060Z,7.10
2017-10-30T06:30:03.332Z,7.10
2017-10-30T06:32:31.588Z,7.10
2017-10-30T06:34:59.085Z,7.10
2017-10-30T06:37:27.341Z,7.00
2017-10-30T06:39:54.805Z,7.00
2017-10-30T06:42:23.040Z,7.00
2017-10-30T06:44:50.536Z,7.00
2017-10-30T06:47:18.780Z,7.00
2017-10-30T06:49:46.287Z,7.00
2017-10-30T06:52:14.523Z,6.90
2017-10-30T06:54:42.009Z,6.90
2017-10-30T06:57:10.260Z,6.90
2017-10-30T06:59:37.732Z,6.90
2017-10-30T07:02:06.000Z,6.90
2017-10-30T07:04:34.236Z,6.90
2017-10-30T07:07:01.721Z,6.90
2017-10-30T07:09:29.200Z,7.00
2017-10-30T07:11:57.448Z,7.10
2017-10-30T07:14:24.943Z,7.00
2017-10-30T07:16:53.221Z,7.10
2017-10-30T07:19:21.460Z,7.10
2017-10-30T07:21:48.950Z,7.10
2017-10-30T07:24:16.415Z,7.10
2017-10-30T07:26:44.681Z,7.20
2017-10-30T07:29:12.151Z,7.20
2017-10-30T07:31:40.383Z,7.20
2017-10-30T07:34:07.868Z,7.20
2017-10-30T07:36:35.336Z,7.20
2017-10-30T07:39:03.611Z,7.30
2017-10-30T07:41:31.852Z,7.40
2017-10-30T07:43:59.317Z,7.40
2017-10-30T07:46:26.804Z,7.50
2017-10-30T07:48:55.048Z,7.70
2017-10-30T07:51:22.535Z,7.70
2017-10-30T07:53:50.000Z,7.70
2017-10-30T07:56:18.235Z,7.80
2017-10-30T14:28:14.787Z,12.00
2017-10-30T14:30:43.047Z,11.80
2017-10-30T14:33:10.547Z,11.80
2017-10-30T14:35:38.044Z,11.80
2017-10-30T14:38:05.532Z,11.70
2017-10-30T14:40:33.136Z,11.70
2017-10-30T14:43:00.603Z,11.70
2017-10-30T14:45:28.076Z,11.60
2017-10-30T14:47:55.561Z,11.60
2017-10-30T14:50:23.044Z,11.60
2017-10-30T14:52:51.353Z,11.70
2017-10-30T14:55:18.843Z,11.70
2017-10-30T14:57:46.336Z,11.70
2017-10-30T15:00:20.219Z,11.60
2017-10-30T15:02:47.700Z,11.60
2017-10-30T15:05:15.968Z,11.60
2017-10-30T15:07:44.212Z,11.50
2017-10-30T15:10:11.692Z,11.50
2017-10-30T15:12:39.171Z,11.50
2017-10-30T15:15:07.416Z,11.50
2017-10-30T15:17:34.900Z,11.50
2017-10-30T15:20:03.148Z,11.30
2017-10-30T15:22:30.624Z,11.30
2017-10-30T15:24:58.888Z,11.20
2017-10-30T15:27:26.371Z,11.20
2017-10-30T15:29:54.646Z,11.10
2017-10-30T15:32:22.876Z,11.10
2017-10-30T15:34:50.353Z,11.10
2017-10-30T15:37:17.875Z,11.10
2017-10-30T15:39:45.356Z,11.10
2017-10-30T15:42:12.852Z,11.20
2017-10-30T15:44:41.164Z,11.10
2017-10-30T15:47:08.635Z,11.10
2017-10-30T15:49:36.118Z,11.00
2017-10-30T15:52:03.604Z,11.00
2017-10-30T15:54:31.872Z,10.90
2017-10-30T15:56:59.366Z,10.90
2017-10-30T15:59:26.835Z,10.90
2017-10-30T16:01:54.325Z,10.90
2017-10-30T16:04:21.804Z,10.90
2017-10-30T16:06:49.409Z,10.90
2017-10-30T16:09:16.900Z,10.80
2017-10-30T16:11:44.380Z,10.80
2017-10-30T16:14:11.868Z,10.80
2017-10-30T16:16:39.432Z,10.80
2017-10-30T16:19:06.928Z,10.80
2017-10-30T16:21:34.399Z,10.70
2017-10-30T16:24:01.885Z,10.70
2017-10-30T16:26:30.159Z,10.50
2017-10-30T16:28:58.474Z,10.50
2017-10-30T16:31:26.095Z,10.50
2017-10-30T16:33:54.361Z,10.40
2017-10-30T16:36:22.605Z,10.40
2017-10-30T16:38:50.100Z,10.40
2017-10-30T16:41:17.648Z,10.30
2017-10-30T16:43:45.171Z,10.30
2017-10-30T16:46:12.644Z,10.30
2017-10-30T16:48:40.139Z,10.20
2017-10-30T16:51:07.653Z,10.10
2017-10-30T16:53:35.127Z,10.10
2017-10-30T16:56:02.827Z,10.10
2017-10-30T16:58:31.074Z,10.00
2017-10-30T17:00:58.559Z,10.00
2017-10-30T17:03:26.813Z,9.90
2017-10-30T17:05:54.279Z,9.90
2017-10-30T17:08:21.766Z,9.90
2017-10-30T17:10:50.001Z,9.80
2017-10-30T17:13:17.476Z,9.80
2017-10-30T17:15:44.964Z,9.80
2017-10-30T17:18:12.436Z,9.80
2017-10-30T17:20:39.927Z,9.70
2017-10-30T17:23:07.413Z,9.80
2017-10-30T17:25:34.884Z,9.70
2017-10-30T17:28:03.144Z,9.60
2017-10-30T17:30:30.617Z,9.60
2017-10-30T17:32:58.995Z,9.60
2017-10-30T17:35:27.227Z,9.50
2017-10-30T17:37:54.695Z,9.50
2017-10-30T17:40:22.972Z,9.50
2017-10-30T17:42:50.439Z,9.50
2017-10-30T17:45:17.932Z,9.50
2017-10-30T17:47:46.166Z,9.40
2017-10-30T17:50:13.643Z,9.40
2017-10-30T17:52:41.132Z,9.40
2017-10-30T17:55:08.614Z,9.50
2017-10-30T17:57:36.119Z,9.50
2017-10-30T18:00:03.619Z,9.50
2017-10-30T18:02:31.079Z,9.40
2017-10-30T18:04:58.570Z,9.50
2017-10-30T18:07:26.040Z,9.40
2017-10-30T18:09:53.551Z,9.40
2017-10-30T18:12:21.024Z,9.40
2017-10-30T18:14:48.508Z,9.40
2017-10-30T18:17:16.001Z,9.40
2017-10-30T18:19:44.239Z,9.40
2017-10-30T18:22:17.382Z,9.40
2017-10-30T18:24:44.860Z,9.40
2017-10-30T18:27:12.357Z,9.40
2017-10-30T18:29:39.931Z,9.40
2017-10-30T18:32:07.404Z,9.30
2017-10-30T18:34:35.663Z,9.30
2017-10-30T18:37:03.131Z,9.30
2017-10-30T18:39:31.370Z,9.30
2017-10-30T18:41:58.851Z,9.30
2017-10-30T18:44:26.364Z,9.30
2017-10-30T18:46:53.850Z,9.20
2017-10-30T18:49:21.315Z,9.20
2017-10-30T18:51:48.792Z,9.20
2017-10-30T18:54:17.039Z,9.10
2017-10-30T18:56:44.507Z,9.10
2017-10-30T18:59:11.998Z,9.10
2017-10-30T19:01:40.236Z,9.00
2017-10-30T19:04:07.741Z,9.00
2017-10-30T19:06:35.229Z,9.00
2017-10-30T19:09:02.699Z,9.00
2017-10-30T19:11:30.214Z,8.90
2017-10-30T19:13:58.457Z,8.90
2017-10-30T19:16:25.926Z,8.80
2017-10-30T19:18:54.186Z,8.80
2017-10-30T19:21:21.699Z,8.80
2017-10-30T19:23:49.199Z,8.80
2017-10-30T19:26:16.668Z,8.80
2017-10-30T19:28:44.912Z,8.70
2017-10-30T19:31:12.411Z,8.70
2017-10-30T19:33:40.659Z,8.60
2017-10-30T19:36:08.147Z,8.60
2017-10-30T19:38:35.625Z,8.60
2017-10-30T19:41:03.860Z,8.60
2017-10-30T19:43:31.343Z,8.60
2017-10-30T19:45:59.584Z,8.60
2017-10-30T19:48:27.084Z,8.60
2017-10-30T19:50:55.315Z,8.60
2017-10-30T19:53:22.803Z,8.60
2017-10-30T19:55:51.065Z,8.50
2017-10-30T19:58:18.535Z,8.50
2017-10-30T20:00:46.108Z,8.50
2017-10-30T20:03:14.340Z,8.50
2017-10-30T20:08:48.707Z,8.50
2017-10-30T20:11:22.028Z,8.50
2017-10-30T20:13:49.571Z,8.50
2017-10-30T20:16:17.068Z,8.60
2017-10-30T20:18:44.536Z,8.60
2017-10-30T20:21:12.011Z,8.50
2017-10-30T20:23:39.509Z,8.50
2017-10-30T20:26:07.749Z,8.50
2017-10-30T20:28:35.247Z,8.50
2017-10-30T20:31:03.479Z,8.50
2017-10-30T20:33:30.949Z,8.50
2017-10-30T20:35:58.435Z,8.50
2017-10-30T20:38:26.692Z,8.50
2017-10-30T20:40:54.185Z,8.40
2017-10-30T20:43:22.448Z,8.50
2017-10-30T20:45:50.692Z,8.50
